sensor_id;sensor_type;location;lat;lon;timestamp;P1;durP1;ratioP1;P2;durP2;ratioP2
22080;SDS011;11207;59.512;18.050;2023-06-24T00:01:23;5.20;;;4.50;;
22080;SDS011;11207;59.512;18.050;2023-06-24T00:03:50;6.40;;;4.97;;
22080;SDS011;11207;59.512;18.050;2023-06-24T00:06:18;6.87;;;4.73;;
22080;SDS011;11207;59.512;18.050;2023-06-24T00:08:47;6.77;;;4.23;;
22080;SDS011;11207;59.512;18.050;2023-06-24T00:11:14;5.63;;;4.20;;
22080;SDS011;11207;59.512;18.050;2023-06-24T00:13:40;4.53;;;4.13;;
22080;SDS011;11207;59.512;18.050;2023-06-24T00:16:07;5.10;;;4.03;;
22080;SDS011;11207;59.512;18.050;2023-06-24T00:18:33;4.53;;;3.90;;
22080;SDS011;11207;59.512;18.050;2023-06-24T00:20:59;4.37;;;3.80;;
22080;SDS011;11207;59.512;18.050;2023-06-24T00:23:26;5.77;;;3.63;;
22080;SDS011;11207;59.512;18.050;2023-06-24T00:25:53;5.57;;;4.10;;
22080;SDS011;11207;59.512;18.050;2023-06-24T00:28:20;3.87;;;3.40;;
22080;SDS011;11207;59.512;18.050;2023-06-24T00:30:46;4.77;;;3.77;;
22080;SDS011;11207;59.512;18.050;2023-06-24T00:33:12;4.60;;;3.83;;
22080;SDS011;11207;59.512;18.050;2023-06-24T00:35:39;3.27;;;3.00;;
22080;SDS011;11207;59.512;18.050;2023-06-24T00:38:05;3.90;;;3.50;;
22080;SDS011;11207;59.512;18.050;2023-06-24T00:40:31;3.87;;;3.57;;
22080;SDS011;11207;59.512;18.050;2023-06-24T00:42:57;3.80;;;3.40;;
22080;SDS011;11207;59.512;18.050;2023-06-24T00:45:23;3.57;;;3.23;;
22080;SDS011;11207;59.512;18.050;2023-06-24T00:47:49;5.17;;;3.80;;
22080;SDS011;11207;59.512;18.050;2023-06-24T00:50:16;3.63;;;3.33;;
22080;SDS011;11207;59.512;18.050;2023-06-24T00:52:42;3.73;;;3.27;;
22080;SDS011;11207;59.512;18.050;2023-06-24T00:55:09;4.10;;;3.70;;
22080;SDS011;11207;59.512;18.050;2023-06-24T00:57:40;4.20;;;3.60;;
22080;SDS011;11207;59.512;18.050;2023-06-24T01:00:07;3.87;;;3.50;;
22080;SDS011;11207;59.512;18.050;2023-06-24T01:02:41;4.53;;;3.57;;
22080;SDS011;11207;59.512;18.050;2023-06-24T01:05:08;3.77;;;3.47;;
22080;SDS011;11207;59.512;18.050;2023-06-24T01:07:35;3.50;;;3.20;;
22080;SDS011;11207;59.512;18.050;2023-06-24T01:10:03;3.33;;;3.03;;
22080;SDS011;11207;59.512;18.050;2023-06-24T01:12:30;4.07;;;3.67;;
22080;SDS011;11207;59.512;18.050;2023-06-24T01:14:58;4.07;;;3.67;;
22080;SDS011;11207;59.512;18.050;2023-06-24T01:17:24;4.50;;;3.70;;
22080;SDS011;11207;59.512;18.050;2023-06-24T01:20:19;4.67;;;3.47;;
22080;SDS011;11207;59.512;18.050;2023-06-24T01:31:44;8.67;;;5.20;;
22080;SDS011;11207;59.512;18.050;2023-06-24T01:34:37;7.20;;;4.40;;
22080;SDS011;11207;59.512;18.050;2023-06-24T01:37:14;8.77;;;4.70;;
22080;SDS011;11207;59.512;18.050;2023-06-24T01:39:46;9.73;;;5.00;;
22080;SDS011;11207;59.512;18.050;2023-06-24T01:42:15;8.97;;;5.30;;
22080;SDS011;11207;59.512;18.050;2023-06-24T01:44:45;6.90;;;5.47;;
22080;SDS011;11207;59.512;18.050;2023-06-24T01:47:13;10.57;;;5.43;;
22080;SDS011;11207;59.512;18.050;2023-06-24T01:49:43;10.37;;;5.87;;
22080;SDS011;11207;59.512;18.050;2023-06-24T01:52:10;10.20;;;5.93;;
22080;SDS011;11207;59.512;18.050;2023-06-24T01:54:38;7.80;;;5.30;;
22080;SDS011;11207;59.512;18.050;2023-06-24T01:57:07;9.20;;;5.43;;
22080;SDS011;11207;59.512;18.050;2023-06-24T01:59:36;8.70;;;5.77;;
22080;SDS011;11207;59.512;18.050;2023-06-24T02:02:03;7.17;;;5.40;;
22080;SDS011;11207;59.512;18.050;2023-06-24T02:04:30;8.57;;;5.33;;
22080;SDS011;11207;59.512;18.050;2023-06-24T02:07:01;8.30;;;5.40;;
22080;SDS011;11207;59.512;18.050;2023-06-24T02:09:28;7.57;;;5.00;;
22080;SDS011;11207;59.512;18.050;2023-06-24T02:11:56;8.03;;;5.10;;
22080;SDS011;11207;59.512;18.050;2023-06-24T02:14:23;7.10;;;5.33;;
22080;SDS011;11207;59.512;18.050;2023-06-24T02:16:52;6.77;;;5.13;;
22080;SDS011;11207;59.512;18.050;2023-06-24T02:19:21;5.60;;;4.67;;
22080;SDS011;11207;59.512;18.050;2023-06-24T02:21:49;7.63;;;4.73;;
22080;SDS011;11207;59.512;18.050;2023-06-24T02:24:17;5.93;;;4.80;;
22080;SDS011;11207;59.512;18.050;2023-06-24T02:26:43;5.63;;;4.30;;
22080;SDS011;11207;59.512;18.050;2023-06-24T02:29:10;4.87;;;4.37;;
22080;SDS011;11207;59.512;18.050;2023-06-24T02:31:38;4.80;;;4.10;;
22080;SDS011;11207;59.512;18.050;2023-06-24T02:34:03;7.07;;;4.27;;
22080;SDS011;11207;59.512;18.050;2023-06-24T02:36:29;5.37;;;4.23;;
22080;SDS011;11207;59.512;18.050;2023-06-24T02:38:55;5.60;;;4.60;;
22080;SDS011;11207;59.512;18.050;2023-06-24T02:41:20;5.63;;;4.20;;
22080;SDS011;11207;59.512;18.050;2023-06-24T02:43:46;5.20;;;4.07;;
22080;SDS011;11207;59.512;18.050;2023-06-24T02:46:12;5.10;;;4.60;;
22080;SDS011;11207;59.512;18.050;2023-06-24T02:48:39;7.43;;;4.70;;
22080;SDS011;11207;59.512;18.050;2023-06-24T02:51:07;4.97;;;4.33;;
22080;SDS011;11207;59.512;18.050;2023-06-24T02:53:35;6.73;;;4.77;;
22080;SDS011;11207;59.512;18.050;2023-06-24T02:56:03;7.07;;;4.30;;
22080;SDS011;11207;59.512;18.050;2023-06-24T02:58:30;6.63;;;4.23;;
22080;SDS011;11207;59.512;18.050;2023-06-24T03:01:00;5.70;;;4.00;;
22080;SDS011;11207;59.512;18.050;2023-06-24T03:03:27;6.13;;;4.30;;
22080;SDS011;11207;59.512;18.050;2023-06-24T03:05:53;5.07;;;3.60;;
22080;SDS011;11207;59.512;18.050;2023-06-24T03:08:21;4.67;;;4.27;;
22080;SDS011;11207;59.512;18.050;2023-06-24T03:10:49;4.93;;;4.43;;
22080;SDS011;11207;59.512;18.050;2023-06-24T03:13:15;4.47;;;4.07;;
22080;SDS011;11207;59.512;18.050;2023-06-24T03:15:41;4.57;;;4.07;;
22080;SDS011;11207;59.512;18.050;2023-06-24T03:18:07;4.57;;;4.10;;
22080;SDS011;11207;59.512;18.050;2023-06-24T03:20:33;4.40;;;3.93;;
22080;SDS011;11207;59.512;18.050;2023-06-24T03:23:04;4.60;;;3.60;;
22080;SDS011;11207;59.512;18.050;2023-06-24T03:25:31;4.07;;;3.67;;
22080;SDS011;11207;59.512;18.050;2023-06-24T03:27:57;3.80;;;3.50;;
22080;SDS011;11207;59.512;18.050;2023-06-24T03:30:23;4.37;;;3.97;;
22080;SDS011;11207;59.512;18.050;2023-06-24T03:32:49;6.70;;;4.10;;
22080;SDS011;11207;59.512;18.050;2023-06-24T03:35:14;3.70;;;3.40;;
22080;SDS011;11207;59.512;18.050;2023-06-24T03:37:40;4.90;;;3.60;;
22080;SDS011;11207;59.512;18.050;2023-06-24T03:40:06;3.90;;;3.43;;
22080;SDS011;11207;59.512;18.050;2023-06-24T03:42:33;4.13;;;3.30;;
22080;SDS011;11207;59.512;18.050;2023-06-24T03:44:58;3.50;;;3.20;;
22080;SDS011;11207;59.512;18.050;2023-06-24T03:47:24;3.93;;;3.20;;
22080;SDS011;11207;59.512;18.050;2023-06-24T03:49:49;4.73;;;3.37;;
22080;SDS011;11207;59.512;18.050;2023-06-24T03:52:16;3.97;;;3.50;;
22080;SDS011;11207;59.512;18.050;2023-06-24T03:54:42;3.33;;;3.00;;
22080;SDS011;11207;59.512;18.050;2023-06-24T03:57:08;3.33;;;3.03;;
22080;SDS011;11207;59.512;18.050;2023-06-24T03:59:34;3.43;;;2.90;;
22080;SDS011;11207;59.512;18.050;2023-06-24T04:01:59;3.70;;;3.23;;
22080;SDS011;11207;59.512;18.050;2023-06-24T04:04:25;3.33;;;3.03;;
22080;SDS011;11207;59.512;18.050;2023-06-24T04:06:51;4.60;;;2.80;;
22080;SDS011;11207;59.512;18.050;2023-06-24T04:09:17;3.13;;;2.90;;
22080;SDS011;11207;59.512;18.050;2023-06-24T04:11:42;3.33;;;3.03;;
22080;SDS011;11207;59.512;18.050;2023-06-24T04:14:08;3.20;;;3.00;;
22080;SDS011;11207;59.512;18.050;2023-06-24T04:16:34;3.43;;;3.13;;
22080;SDS011;11207;59.512;18.050;2023-06-24T04:19:01;5.73;;;3.47;;
22080;SDS011;11207;59.512;18.050;2023-06-24T04:21:26;3.33;;;3.03;;
22080;SDS011;11207;59.512;18.050;2023-06-24T04:23:52;4.83;;;3.37;;
22080;SDS011;11207;59.512;18.050;2023-06-24T04:26:18;2.77;;;2.57;;
22080;SDS011;11207;59.512;18.050;2023-06-24T04:28:43;3.37;;;2.83;;
22080;SDS011;11207;59.512;18.050;2023-06-24T04:31:09;3.77;;;2.77;;
22080;SDS011;11207;59.512;18.050;2023-06-24T04:33:35;4.27;;;3.03;;
22080;SDS011;11207;59.512;18.050;2023-06-24T04:36:00;3.17;;;2.87;;
22080;SDS011;11207;59.512;18.050;2023-06-24T04:38:26;3.00;;;2.70;;
22080;SDS011;11207;59.512;18.050;2023-06-24T04:40:52;2.90;;;2.60;;
22080;SDS011;11207;59.512;18.050;2023-06-24T04:43:18;4.03;;;2.83;;
22080;SDS011;11207;59.512;18.050;2023-06-24T04:45:43;2.63;;;2.40;;
22080;SDS011;11207;59.512;18.050;2023-06-24T04:48:09;2.60;;;2.30;;
22080;SDS011;11207;59.512;18.050;2023-06-24T04:50:34;2.37;;;2.17;;
22080;SDS011;11207;59.512;18.050;2023-06-24T04:53:00;3.83;;;2.40;;
22080;SDS011;11207;59.512;18.050;2023-06-24T04:55:27;3.87;;;2.40;;
22080;SDS011;11207;59.512;18.050;2023-06-24T04:57:54;5.07;;;2.27;;
22080;SDS011;11207;59.512;18.050;2023-06-24T05:00:20;4.13;;;2.20;;
22080;SDS011;11207;59.512;18.050;2023-06-24T05:02:49;4.13;;;2.27;;
22080;SDS011;11207;59.512;18.050;2023-06-24T05:05:15;2.40;;;2.10;;
22080;SDS011;11207;59.512;18.050;2023-06-24T05:07:40;3.40;;;1.90;;
22080;SDS011;11207;59.512;18.050;2023-06-24T05:10:06;2.27;;;1.80;;
22080;SDS011;11207;59.512;18.050;2023-06-24T05:12:32;2.43;;;1.83;;
22080;SDS011;11207;59.512;18.050;2023-06-24T05:14:57;3.13;;;2.07;;
22080;SDS011;11207;59.512;18.050;2023-06-24T05:17:23;2.97;;;1.70;;
22080;SDS011;11207;59.512;18.050;2023-06-24T05:19:49;2.55;;;1.98;;
22080;SDS011;11207;59.512;18.050;2023-06-24T05:22:14;2.83;;;2.10;;
22080;SDS011;11207;59.512;18.050;2023-06-24T05:24:41;4.43;;;1.90;;
22080;SDS011;11207;59.512;18.050;2023-06-24T05:27:06;2.20;;;1.70;;
22080;SDS011;11207;59.512;18.050;2023-06-24T05:29:33;2.83;;;1.70;;
22080;SDS011;11207;59.512;18.050;2023-06-24T05:31:59;2.95;;;1.80;;
22080;SDS011;11207;59.512;18.050;2023-06-24T05:34:27;2.50;;;1.80;;
22080;SDS011;11207;59.512;18.050;2023-06-24T05:36:52;2.45;;;1.85;;
22080;SDS011;11207;59.512;18.050;2023-06-24T05:39:18;3.42;;;1.98;;
22080;SDS011;11207;59.512;18.050;2023-06-24T05:41:45;2.97;;;1.67;;
22080;SDS011;11207;59.512;18.050;2023-06-24T05:44:10;2.50;;;1.53;;
22080;SDS011;11207;59.512;18.050;2023-06-24T05:46:36;1.90;;;1.70;;
22080;SDS011;11207;59.512;18.050;2023-06-24T05:49:02;2.40;;;1.60;;
22080;SDS011;11207;59.512;18.050;2023-06-24T05:51:28;3.60;;;1.40;;
22080;SDS011;11207;59.512;18.050;2023-06-24T05:53:53;2.97;;;1.75;;
22080;SDS011;11207;59.512;18.050;2023-06-24T05:56:22;1.77;;;1.60;;
22080;SDS011;11207;59.512;18.050;2023-06-24T05:58:48;2.80;;;1.55;;
22080;SDS011;11207;59.512;18.050;2023-06-24T06:01:14;3.03;;;2.10;;
22080;SDS011;11207;59.512;18.050;2023-06-24T06:03:40;1.48;;;1.37;;
22080;SDS011;11207;59.512;18.050;2023-06-24T06:06:05;3.60;;;1.50;;
22080;SDS011;11207;59.512;18.050;2023-06-24T06:08:32;3.78;;;1.90;;
22080;SDS011;11207;59.512;18.050;2023-06-24T06:10:58;4.00;;;1.50;;
22080;SDS011;11207;59.512;18.050;2023-06-24T06:13:25;3.25;;;1.58;;
22080;SDS011;11207;59.512;18.050;2023-06-24T06:15:51;2.78;;;1.60;;
22080;SDS011;11207;59.512;18.050;2023-06-24T06:18:16;2.47;;;1.62;;
22080;SDS011;11207;59.512;18.050;2023-06-24T06:20:42;2.92;;;1.70;;
22080;SDS011;11207;59.512;18.050;2023-06-24T06:23:07;2.45;;;1.58;;
22080;SDS011;11207;59.512;18.050;2023-06-24T06:25:33;2.25;;;1.50;;
22080;SDS011;11207;59.512;18.050;2023-06-24T06:28:00;2.03;;;1.45;;
22080;SDS011;11207;59.512;18.050;2023-06-24T06:30:26;2.95;;;1.45;;
22080;SDS011;11207;59.512;18.050;2023-06-24T06:32:51;1.92;;;1.55;;
22080;SDS011;11207;59.512;18.050;2023-06-24T06:35:17;3.17;;;1.45;;
22080;SDS011;11207;59.512;18.050;2023-06-24T06:37:42;1.52;;;1.35;;
22080;SDS011;11207;59.512;18.050;2023-06-24T06:40:08;2.40;;;1.30;;
22080;SDS011;11207;59.512;18.050;2023-06-24T06:45:26;1.30;;;1.20;;
22080;SDS011;11207;59.512;18.050;2023-06-24T06:47:52;1.52;;;1.30;;
22080;SDS011;11207;59.512;18.050;2023-06-24T06:50:17;2.60;;;1.50;;
22080;SDS011;11207;59.512;18.050;2023-06-24T06:52:43;2.85;;;1.25;;
22080;SDS011;11207;59.512;18.050;2023-06-24T06:55:09;2.47;;;1.55;;
22080;SDS011;11207;59.512;18.050;2023-06-24T06:57:34;1.75;;;1.40;;
22080;SDS011;11207;59.512;18.050;2023-06-24T07:00:00;1.40;;;1.20;;
22080;SDS011;11207;59.512;18.050;2023-06-24T07:02:26;1.70;;;1.30;;
22080;SDS011;11207;59.512;18.050;2023-06-24T07:04:51;2.60;;;1.45;;
22080;SDS011;11207;59.512;18.050;2023-06-24T07:07:17;1.83;;;1.40;;
22080;SDS011;11207;59.512;18.050;2023-06-24T07:09:42;2.00;;;1.40;;
22080;SDS011;11207;59.512;18.050;2023-06-24T07:12:08;1.87;;;1.40;;
22080;SDS011;11207;59.512;18.050;2023-06-24T07:14:34;3.92;;;1.70;;
22080;SDS011;11207;59.512;18.050;2023-06-24T07:16:59;2.47;;;1.23;;
22080;SDS011;11207;59.512;18.050;2023-06-24T07:19:25;2.25;;;1.30;;
22080;SDS011;11207;59.512;18.050;2023-06-24T07:21:51;1.92;;;1.10;;
22080;SDS011;11207;59.512;18.050;2023-06-24T07:24:17;1.62;;;1.35;;
22080;SDS011;11207;59.512;18.050;2023-06-24T07:26:43;3.00;;;1.52;;
22080;SDS011;11207;59.512;18.050;2023-06-24T07:29:08;1.83;;;1.23;;
22080;SDS011;11207;59.512;18.050;2023-06-24T07:31:35;1.40;;;1.30;;
22080;SDS011;11207;59.512;18.050;2023-06-24T07:34:01;2.97;;;1.50;;
22080;SDS011;11207;59.512;18.050;2023-06-24T07:36:26;1.48;;;1.20;;
22080;SDS011;11207;59.512;18.050;2023-06-24T07:38:52;1.10;;;1.08;;
22080;SDS011;11207;59.512;18.050;2023-06-24T07:41:18;1.80;;;1.37;;
22080;SDS011;11207;59.512;18.050;2023-06-24T07:43:43;1.80;;;1.35;;
22080;SDS011;11207;59.512;18.050;2023-06-24T07:46:12;1.30;;;1.20;;
22080;SDS011;11207;59.512;18.050;2023-06-24T07:48:38;3.17;;;1.30;;
22080;SDS011;11207;59.512;18.050;2023-06-24T07:51:03;1.30;;;1.20;;
22080;SDS011;11207;59.512;18.050;2023-06-24T07:53:29;1.55;;;1.20;;
22080;SDS011;11207;59.512;18.050;2023-06-24T07:55:54;1.83;;;1.40;;
22080;SDS011;11207;59.512;18.050;2023-06-24T07:58:20;1.95;;;1.40;;
22080;SDS011;11207;59.512;18.050;2023-06-24T08:00:45;1.98;;;1.20;;
22080;SDS011;11207;59.512;18.050;2023-06-24T08:03:12;1.58;;;1.15;;
22080;SDS011;11207;59.512;18.050;2023-06-24T08:05:38;2.25;;;1.35;;
22080;SDS011;11207;59.512;18.050;2023-06-24T08:08:04;1.77;;;1.30;;
22080;SDS011;11207;59.512;18.050;2023-06-24T08:10:30;1.90;;;1.30;;
22080;SDS011;11207;59.512;18.050;2023-06-24T08:12:57;2.60;;;1.20;;
22080;SDS011;11207;59.512;18.050;2023-06-24T08:15:22;1.55;;;1.20;;
22080;SDS011;11207;59.512;18.050;2023-06-24T08:17:54;2.08;;;1.60;;
22080;SDS011;11207;59.512;18.050;2023-06-24T08:20:21;1.30;;;1.20;;
22080;SDS011;11207;59.512;18.050;2023-06-24T08:22:50;1.02;;;1.02;;
22080;SDS011;11207;59.512;18.050;2023-06-24T08:25:18;1.27;;;1.20;;
22080;SDS011;11207;59.512;18.050;2023-06-24T08:27:44;0.80;;;0.80;;
22080;SDS011;11207;59.512;18.050;2023-06-24T08:30:12;1.75;;;1.30;;
22080;SDS011;11207;59.512;18.050;2023-06-24T08:32:39;1.33;;;0.90;;
22080;SDS011;11207;59.512;18.050;2023-06-24T08:35:05;1.77;;;1.20;;
22080;SDS011;11207;59.512;18.050;2023-06-24T08:37:31;1.90;;;1.25;;
22080;SDS011;11207;59.512;18.050;2023-06-24T08:39:57;2.72;;;1.52;;
22080;SDS011;11207;59.512;18.050;2023-06-24T08:42:23;1.73;;;1.30;;
22080;SDS011;11207;59.512;18.050;2023-06-24T08:44:49;2.15;;;1.20;;
22080;SDS011;11207;59.512;18.050;2023-06-24T08:47:15;1.27;;;0.98;;
22080;SDS011;11207;59.512;18.050;2023-06-24T08:49:52;4.35;;;1.48;;
22080;SDS011;11207;59.512;18.050;2023-06-24T08:52:21;1.20;;;1.00;;
22080;SDS011;11207;59.512;18.050;2023-06-24T08:54:50;1.23;;;1.12;;
22080;SDS011;11207;59.512;18.050;2023-06-24T08:57:16;1.73;;;1.02;;
22080;SDS011;11207;59.512;18.050;2023-06-24T08:59:43;1.58;;;1.30;;
22080;SDS011;11207;59.512;18.050;2023-06-24T09:02:09;1.98;;;1.45;;
22080;SDS011;11207;59.512;18.050;2023-06-24T09:04:36;1.33;;;1.10;;
22080;SDS011;11207;59.512;18.050;2023-06-24T09:07:02;2.20;;;1.00;;
22080;SDS011;11207;59.512;18.050;2023-06-24T09:09:28;1.62;;;1.30;;
22080;SDS011;11207;59.512;18.050;2023-06-24T09:11:58;1.58;;;1.00;;
22080;SDS011;11207;59.512;18.050;2023-06-24T09:14:25;1.60;;;1.30;;
22080;SDS011;11207;59.512;18.050;2023-06-24T09:16:53;2.25;;;1.27;;
22080;SDS011;11207;59.512;18.050;2023-06-24T09:19:24;1.92;;;1.10;;
22080;SDS011;11207;59.512;18.050;2023-06-24T09:21:53;1.33;;;1.23;;
22080;SDS011;11207;59.512;18.050;2023-06-24T09:24:18;2.67;;;1.10;;
22080;SDS011;11207;59.512;18.050;2023-06-24T09:26:44;2.83;;;1.50;;
22080;SDS011;11207;59.512;18.050;2023-06-24T09:29:10;1.55;;;1.15;;
22080;SDS011;11207;59.512;18.050;2023-06-24T09:31:45;1.17;;;1.08;;
22080;SDS011;11207;59.512;18.050;2023-06-24T09:34:12;2.05;;;1.27;;
22080;SDS011;11207;59.512;18.050;2023-06-24T09:36:43;1.58;;;1.30;;
22080;SDS011;11207;59.512;18.050;2023-06-24T09:39:10;1.30;;;1.12;;
22080;SDS011;11207;59.512;18.050;2023-06-24T09:41:36;1.25;;;1.17;;
22080;SDS011;11207;59.512;18.050;2023-06-24T09:44:07;1.37;;;1.05;;
22080;SDS011;11207;59.512;18.050;2023-06-24T09:46:35;1.05;;;0.90;;
22080;SDS011;11207;59.512;18.050;2023-06-24T09:49:02;1.02;;;1.00;;
22080;SDS011;11207;59.512;18.050;2023-06-24T09:51:38;1.30;;;1.20;;
22080;SDS011;11207;59.512;18.050;2023-06-24T09:54:08;1.40;;;1.20;;
22080;SDS011;11207;59.512;18.050;2023-06-24T09:56:35;1.27;;;1.10;;
22080;SDS011;11207;59.512;18.050;2023-06-24T09:59:04;1.95;;;1.10;;
22080;SDS011;11207;59.512;18.050;2023-06-24T10:01:35;1.23;;;1.10;;
22080;SDS011;11207;59.512;18.050;2023-06-24T10:04:03;2.10;;;1.33;;
22080;SDS011;11207;59.512;18.050;2023-06-24T10:06:33;1.62;;;1.30;;
22080;SDS011;11207;59.512;18.050;2023-06-24T10:09:00;1.48;;;1.20;;
22080;SDS011;11207;59.512;18.050;2023-06-24T10:11:26;1.42;;;1.33;;
22080;SDS011;11207;59.512;18.050;2023-06-24T10:13:52;2.15;;;1.40;;
22080;SDS011;11207;59.512;18.050;2023-06-24T10:16:18;1.40;;;1.30;;
22080;SDS011;11207;59.512;18.050;2023-06-24T10:18:44;1.80;;;1.08;;
22080;SDS011;11207;59.512;18.050;2023-06-24T10:21:11;2.90;;;1.35;;
22080;SDS011;11207;59.512;18.050;2023-06-24T10:23:40;3.03;;;1.33;;
22080;SDS011;11207;59.512;18.050;2023-06-24T10:26:22;1.20;;;1.10;;
22080;SDS011;11207;59.512;18.050;2023-06-24T10:32:13;2.42;;;1.30;;
22080;SDS011;11207;59.512;18.050;2023-06-24T10:34:40;1.35;;;1.08;;
22080;SDS011;11207;59.512;18.050;2023-06-24T10:39:39;3.28;;;1.10;;
22080;SDS011;11207;59.512;18.050;2023-06-24T10:44:55;1.60;;;1.10;;
22080;SDS011;11207;59.512;18.050;2023-06-24T10:47:22;1.73;;;1.30;;
22080;SDS011;11207;59.512;18.050;2023-06-24T10:49:49;1.48;;;1.20;;
22080;SDS011;11207;59.512;18.050;2023-06-24T10:52:15;1.67;;;1.40;;
22080;SDS011;11207;59.512;18.050;2023-06-24T10:54:48;1.90;;;1.27;;
22080;SDS011;11207;59.512;18.050;2023-06-24T10:57:14;3.40;;;1.50;;
22080;SDS011;11207;59.512;18.050;2023-06-24T10:59:48;1.40;;;1.30;;
22080;SDS011;11207;59.512;18.050;2023-06-24T11:02:15;1.42;;;1.30;;
22080;SDS011;11207;59.512;18.050;2023-06-24T11:04:42;1.67;;;1.20;;
22080;SDS011;11207;59.512;18.050;2023-06-24T11:07:24;2.33;;;1.15;;
22080;SDS011;11207;59.512;18.050;2023-06-24T11:12:23;1.95;;;1.23;;
22080;SDS011;11207;59.512;18.050;2023-06-24T11:14:51;2.37;;;1.60;;
22080;SDS011;11207;59.512;18.050;2023-06-24T11:17:16;1.40;;;1.30;;
22080;SDS011;11207;59.512;18.050;2023-06-24T11:19:44;1.20;;;1.10;;
22080;SDS011;11207;59.512;18.050;2023-06-24T11:22:10;2.20;;;1.40;;
22080;SDS011;11207;59.512;18.050;2023-06-24T11:24:36;1.45;;;1.20;;
22080;SDS011;11207;59.512;18.050;2023-06-24T11:27:04;1.08;;;1.00;;
22080;SDS011;11207;59.512;18.050;2023-06-24T11:29:30;2.47;;;1.10;;
22080;SDS011;11207;59.512;18.050;2023-06-24T11:32:00;1.50;;;1.17;;
22080;SDS011;11207;59.512;18.050;2023-06-24T11:34:27;1.50;;;1.40;;
22080;SDS011;11207;59.512;18.050;2023-06-24T11:36:53;3.25;;;1.40;;
22080;SDS011;11207;59.512;18.050;2023-06-24T11:39:25;1.20;;;1.10;;
22080;SDS011;11207;59.512;18.050;2023-06-24T11:41:52;1.33;;;1.20;;
22080;SDS011;11207;59.512;18.050;2023-06-24T11:44:23;1.37;;;1.27;;
22080;SDS011;11207;59.512;18.050;2023-06-24T11:46:49;1.23;;;1.02;;
22080;SDS011;11207;59.512;18.050;2023-06-24T11:49:15;1.45;;;1.35;;
22080;SDS011;11207;59.512;18.050;2023-06-24T11:51:50;1.50;;;1.12;;
22080;SDS011;11207;59.512;18.050;2023-06-24T11:54:18;1.75;;;1.40;;
22080;SDS011;11207;59.512;18.050;2023-06-24T11:56:49;2.70;;;1.23;;
22080;SDS011;11207;59.512;18.050;2023-06-24T11:59:21;2.55;;;1.40;;
22080;SDS011;11207;59.512;18.050;2023-06-24T12:01:53;1.67;;;1.10;;
22080;SDS011;11207;59.512;18.050;2023-06-24T12:04:29;3.35;;;1.20;;
22080;SDS011;11207;59.512;18.050;2023-06-24T12:06:56;1.20;;;1.10;;
22080;SDS011;11207;59.512;18.050;2023-06-24T12:09:22;1.50;;;1.40;;
22080;SDS011;11207;59.512;18.050;2023-06-24T12:11:48;3.28;;;1.83;;
22080;SDS011;11207;59.512;18.050;2023-06-24T12:14:14;5.35;;;1.48;;
22080;SDS011;11207;59.512;18.050;2023-06-24T12:16:39;1.25;;;1.15;;
22080;SDS011;11207;59.512;18.050;2023-06-24T12:19:05;1.58;;;1.40;;
22080;SDS011;11207;59.512;18.050;2023-06-24T12:21:32;1.60;;;1.33;;
22080;SDS011;11207;59.512;18.050;2023-06-24T12:23:57;1.30;;;1.12;;
22080;SDS011;11207;59.512;18.050;2023-06-24T12:26:23;1.65;;;1.20;;
22080;SDS011;11207;59.512;18.050;2023-06-24T12:28:49;1.87;;;1.67;;
22080;SDS011;11207;59.512;18.050;2023-06-24T12:31:14;1.20;;;1.10;;
22080;SDS011;11207;59.512;18.050;2023-06-24T12:33:40;1.40;;;1.30;;
22080;SDS011;11207;59.512;18.050;2023-06-24T12:36:06;1.42;;;1.33;;
22080;SDS011;11207;59.512;18.050;2023-06-24T12:38:31;1.30;;;1.15;;
22080;SDS011;11207;59.512;18.050;2023-06-24T12:40:57;2.00;;;1.42;;
22080;SDS011;11207;59.512;18.050;2023-06-24T12:43:23;1.20;;;1.10;;
22080;SDS011;11207;59.512;18.050;2023-06-24T12:45:49;1.27;;;1.20;;
22080;SDS011;11207;59.512;18.050;2023-06-24T12:48:16;2.28;;;1.67;;
22080;SDS011;11207;59.512;18.050;2023-06-24T12:50:41;2.08;;;1.60;;
22080;SDS011;11207;59.512;18.050;2023-06-24T12:53:08;1.40;;;1.30;;
22080;SDS011;11207;59.512;18.050;2023-06-24T12:55:36;2.00;;;1.40;;
22080;SDS011;11207;59.512;18.050;2023-06-24T12:58:01;2.20;;;1.25;;
22080;SDS011;11207;59.512;18.050;2023-06-24T13:00:27;1.50;;;1.40;;
22080;SDS011;11207;59.512;18.050;2023-06-24T13:02:53;1.52;;;1.42;;
22080;SDS011;11207;59.512;18.050;2023-06-24T13:05:18;1.10;;;1.00;;
22080;SDS011;11207;59.512;18.050;2023-06-24T13:07:44;1.50;;;1.30;;
22080;SDS011;11207;59.512;18.050;2023-06-24T13:10:13;1.30;;;1.17;;
22080;SDS011;11207;59.512;18.050;2023-06-24T13:12:42;1.98;;;1.42;;
22080;SDS011;11207;59.512;18.050;2023-06-24T13:15:08;2.30;;;1.40;;
22080;SDS011;11207;59.512;18.050;2023-06-24T13:17:35;1.30;;;1.25;;
22080;SDS011;11207;59.512;18.050;2023-06-24T13:20:01;1.30;;;1.20;;
22080;SDS011;11207;59.512;18.050;2023-06-24T13:22:29;1.40;;;1.20;;
22080;SDS011;11207;59.512;18.050;2023-06-24T13:24:55;2.55;;;1.23;;
22080;SDS011;11207;59.512;18.050;2023-06-24T13:27:21;1.62;;;1.23;;
22080;SDS011;11207;59.512;18.050;2023-06-24T13:29:50;1.85;;;1.67;;
22080;SDS011;11207;59.512;18.050;2023-06-24T13:32:15;1.80;;;1.40;;
22080;SDS011;11207;59.512;18.050;2023-06-24T13:34:41;1.27;;;1.17;;
22080;SDS011;11207;59.512;18.050;2023-06-24T13:37:06;1.92;;;1.33;;
22080;SDS011;11207;59.512;18.050;2023-06-24T13:39:32;2.30;;;1.02;;
22080;SDS011;11207;59.512;18.050;2023-06-24T13:41:58;4.28;;;1.60;;
22080;SDS011;11207;59.512;18.050;2023-06-24T13:44:23;1.67;;;1.30;;
22080;SDS011;11207;59.512;18.050;2023-06-24T13:46:49;1.60;;;1.50;;
22080;SDS011;11207;59.512;18.050;2023-06-24T13:49:18;1.83;;;1.50;;
22080;SDS011;11207;59.512;18.050;2023-06-24T13:51:47;1.62;;;1.52;;
22080;SDS011;11207;59.512;18.050;2023-06-24T13:54:12;1.50;;;1.30;;
22080;SDS011;11207;59.512;18.050;2023-06-24T13:56:41;1.45;;;1.10;;
22080;SDS011;11207;59.512;18.050;2023-06-24T13:59:07;1.50;;;1.40;;
22080;SDS011;11207;59.512;18.050;2023-06-24T14:01:38;1.98;;;1.65;;
22080;SDS011;11207;59.512;18.050;2023-06-24T14:04:06;1.50;;;1.35;;
22080;SDS011;11207;59.512;18.050;2023-06-24T14:06:35;4.47;;;1.70;;
22080;SDS011;11207;59.512;18.050;2023-06-24T14:09:01;1.70;;;1.50;;
22080;SDS011;11207;59.512;18.050;2023-06-24T14:11:26;2.20;;;1.95;;
22080;SDS011;11207;59.512;18.050;2023-06-24T14:13:52;1.50;;;1.40;;
22080;SDS011;11207;59.512;18.050;2023-06-24T14:16:17;2.58;;;1.58;;
22080;SDS011;11207;59.512;18.050;2023-06-24T14:18:45;2.65;;;1.50;;
22080;SDS011;11207;59.512;18.050;2023-06-24T14:21:11;1.95;;;1.75;;
22080;SDS011;11207;59.512;18.050;2023-06-24T14:23:37;3.03;;;1.50;;
22080;SDS011;11207;59.512;18.050;2023-06-24T14:26:02;1.80;;;1.70;;
22080;SDS011;11207;59.512;18.050;2023-06-24T14:28:28;2.37;;;1.67;;
22080;SDS011;11207;59.512;18.050;2023-06-24T14:30:54;1.55;;;1.45;;
22080;SDS011;11207;59.512;18.050;2023-06-24T14:33:20;1.70;;;1.60;;
22080;SDS011;11207;59.512;18.050;2023-06-24T14:35:46;1.42;;;1.33;;
22080;SDS011;11207;59.512;18.050;2023-06-24T14:38:15;1.55;;;1.37;;
22080;SDS011;11207;59.512;18.050;2023-06-24T14:40:41;1.90;;;1.80;;
22080;SDS011;11207;59.512;18.050;2023-06-24T14:43:09;2.08;;;1.40;;
22080;SDS011;11207;59.512;18.050;2023-06-24T14:45:34;3.47;;;1.50;;
22080;SDS011;11207;59.512;18.050;2023-06-24T14:48:01;2.25;;;1.67;;
22080;SDS011;11207;59.512;18.050;2023-06-24T14:50:26;2.28;;;1.50;;
22080;SDS011;11207;59.512;18.050;2023-06-24T14:52:52;2.45;;;1.60;;
22080;SDS011;11207;59.512;18.050;2023-06-24T14:55:18;2.20;;;1.75;;